sensor_id;sensor_type;location;lat;lon;timestamp;P1;durP1;ratioP1;P2;durP2;ratioP2
63012;SDS011;62113;45.624;11.700;2022-07-10T00:02:09;10.33;;;4.40;;
63012;SDS011;62113;45.624;11.700;2022-07-10T00:04:35;6.43;;;3.90;;
63012;SDS011;62113;45.624;11.700;2022-07-10T00:07:01;4.40;;;3.25;;
63012;SDS011;62113;45.624;11.700;2022-07-10T00:09:28;9.32;;;4.10;;
63012;SDS011;62113;45.624;11.700;2022-07-10T00:11:54;5.88;;;3.70;;
63012;SDS011;62113;45.624;11.700;2022-07-10T00:14:19;5.50;;;3.50;;
63012;SDS011;62113;45.624;11.700;2022-07-10T00:16:45;4.10;;;3.40;;
63012;SDS011;62113;45.624;11.700;2022-07-10T00:19:11;7.57;;;3.90;;
63012;SDS011;62113;45.624;11.700;2022-07-10T00:21:37;7.18;;;3.72;;
63012;SDS011;62113;45.624;11.700;2022-07-10T00:24:03;10.70;;;3.30;;
63012;SDS011;62113;45.624;11.700;2022-07-10T00:26:29;5.75;;;3.42;;
63012;SDS011;62113;45.624;11.700;2022-07-10T00:28:54;5.63;;;3.67;;
63012;SDS011;62113;45.624;11.700;2022-07-10T00:31:20;6.63;;;4.27;;
63012;SDS011;62113;45.624;11.700;2022-07-10T00:33:46;12.60;;;4.25;;
63012;SDS011;62113;45.624;11.700;2022-07-10T00:36:13;7.32;;;4.38;;
63012;SDS011;62113;45.624;11.700;2022-07-10T00:38:39;5.07;;;4.03;;
63012;SDS011;62113;45.624;11.700;2022-07-10T00:41:05;6.00;;;4.28;;
63012;SDS011;62113;45.624;11.700;2022-07-10T00:43:50;5.43;;;3.50;;
63012;SDS011;62113;45.624;11.700;2022-07-10T00:46:24;9.18;;;4.10;;
63012;SDS011;62113;45.624;11.700;2022-07-10T00:48:50;10.70;;;4.32;;
63012;SDS011;62113;45.624;11.700;2022-07-10T00:51:16;9.02;;;3.80;;
63012;SDS011;62113;45.624;11.700;2022-07-10T00:53:44;4.10;;;3.70;;
63012;SDS011;62113;45.624;11.700;2022-07-10T00:56:11;6.25;;;3.67;;
63012;SDS011;62113;45.624;11.700;2022-07-10T00:58:37;9.60;;;3.42;;
63012;SDS011;62113;45.624;11.700;2022-07-10T01:01:04;5.60;;;3.47;;
63012;SDS011;62113;45.624;11.700;2022-07-10T01:03:31;7.45;;;3.72;;
63012;SDS011;62113;45.624;11.700;2022-07-10T01:05:57;5.77;;;3.63;;
63012;SDS011;62113;45.624;11.700;2022-07-10T01:10:49;7.03;;;3.45;;
63012;SDS011;62113;45.624;11.700;2022-07-10T01:13:14;9.40;;;3.60;;
63012;SDS011;62113;45.624;11.700;2022-07-10T01:15:40;9.30;;;3.33;;
63012;SDS011;62113;45.624;11.700;2022-07-10T01:18:07;7.95;;;3.30;;
63012;SDS011;62113;45.624;11.700;2022-07-10T01:20:32;4.43;;;3.23;;
63012;SDS011;62113;45.624;11.700;2022-07-10T01:22:59;5.93;;;3.50;;
63012;SDS011;62113;45.624;11.700;2022-07-10T01:25:25;9.60;;;3.45;;
63012;SDS011;62113;45.624;11.700;2022-07-10T01:27:51;5.07;;;3.13;;
63012;SDS011;62113;45.624;11.700;2022-07-10T01:30:17;9.80;;;3.40;;
63012;SDS011;62113;45.624;11.700;2022-07-10T01:32:44;5.78;;;3.50;;
63012;SDS011;62113;45.624;11.700;2022-07-10T01:35:10;8.98;;;3.50;;
63012;SDS011;62113;45.624;11.700;2022-07-10T01:37:36;5.18;;;3.22;;
63012;SDS011;62113;45.624;11.700;2022-07-10T01:40:02;7.00;;;3.20;;
63012;SDS011;62113;45.624;11.700;2022-07-10T01:47:20;4.33;;;3.40;;
63012;SDS011;62113;45.624;11.700;2022-07-10T01:49:49;4.90;;;3.42;;
63012;SDS011;62113;45.624;11.700;2022-07-10T01:52:16;7.00;;;3.47;;
63012;SDS011;62113;45.624;11.700;2022-07-10T01:54:41;7.17;;;3.27;;
63012;SDS011;62113;45.624;11.700;2022-07-10T01:57:07;6.93;;;3.50;;
63012;SDS011;62113;45.624;11.700;2022-07-10T01:59:33;12.90;;;4.10;;
63012;SDS011;62113;45.624;11.700;2022-07-10T02:01:58;8.23;;;3.47;;
63012;SDS011;62113;45.624;11.700;2022-07-10T02:04:24;8.27;;;3.70;;
63012;SDS011;62113;45.624;11.700;2022-07-10T02:07:11;4.20;;;3.15;;
63012;SDS011;62113;45.624;11.700;2022-07-10T02:09:38;4.45;;;3.08;;
63012;SDS011;62113;45.624;11.700;2022-07-10T02:14:30;8.00;;;3.80;;
63012;SDS011;62113;45.624;11.700;2022-07-10T02:16:56;7.45;;;3.92;;
63012;SDS011;62113;45.624;11.700;2022-07-10T02:19:22;5.60;;;3.50;;
63012;SDS011;62113;45.624;11.700;2022-07-10T02:21:48;4.47;;;3.17;;
63012;SDS011;62113;45.624;11.700;2022-07-10T02:24:14;10.05;;;4.00;;
63012;SDS011;62113;45.624;11.700;2022-07-10T02:26:39;5.67;;;3.13;;
63012;SDS011;62113;45.624;11.700;2022-07-10T02:29:05;7.13;;;3.50;;
63012;SDS011;62113;45.624;11.700;2022-07-10T02:31:31;5.30;;;3.03;;
63012;SDS011;62113;45.624;11.700;2022-07-10T02:33:59;8.05;;;2.90;;
63012;SDS011;62113;45.624;11.700;2022-07-10T02:36:25;10.57;;;3.35;;
63012;SDS011;62113;45.624;11.700;2022-07-10T02:38:51;4.30;;;2.73;;
63012;SDS011;62113;45.624;11.700;2022-07-10T02:41:16;6.37;;;3.03;;
63012;SDS011;62113;45.624;11.700;2022-07-10T02:43:42;4.00;;;3.23;;
63012;SDS011;62113;45.624;11.700;2022-07-10T02:46:07;7.00;;;3.03;;
63012;SDS011;62113;45.624;11.700;2022-07-10T02:48:33;6.43;;;3.10;;
63012;SDS011;62113;45.624;11.700;2022-07-10T02:50:59;13.70;;;3.10;;
63012;SDS011;62113;45.624;11.700;2022-07-10T02:53:25;8.30;;;3.37;;
63012;SDS011;62113;45.624;11.700;2022-07-10T02:55:50;5.40;;;3.10;;
63012;SDS011;62113;45.624;11.700;2022-07-10T02:58:16;3.37;;;2.80;;
63012;SDS011;62113;45.624;11.700;2022-07-10T03:00:42;9.35;;;3.20;;
63012;SDS011;62113;45.624;11.700;2022-07-10T03:03:08;3.30;;;2.92;;
63012;SDS011;62113;45.624;11.700;2022-07-10T03:05:34;5.68;;;3.03;;
63012;SDS011;62113;45.624;11.700;2022-07-10T03:07:59;4.50;;;3.07;;
63012;SDS011;62113;45.624;11.700;2022-07-10T03:10:25;5.77;;;2.77;;
63012;SDS011;62113;45.624;11.700;2022-07-10T03:12:51;5.35;;;2.92;;
63012;SDS011;62113;45.624;11.700;2022-07-10T03:15:17;7.23;;;2.80;;
63012;SDS011;62113;45.624;11.700;2022-07-10T03:17:42;6.47;;;3.07;;
63012;SDS011;62113;45.624;11.700;2022-07-10T03:20:09;7.22;;;3.28;;
63012;SDS011;62113;45.624;11.700;2022-07-10T03:25:01;4.88;;;2.97;;
63012;SDS011;62113;45.624;11.700;2022-07-10T03:27:26;4.77;;;3.10;;
63012;SDS011;62113;45.624;11.700;2022-07-10T03:29:52;3.80;;;3.13;;
63012;SDS011;62113;45.624;11.700;2022-07-10T03:32:18;5.50;;;3.23;;
63012;SDS011;62113;45.624;11.700;2022-07-10T03:34:43;5.47;;;3.10;;
63012;SDS011;62113;45.624;11.700;2022-07-10T03:37:09;6.47;;;3.10;;
63012;SDS011;62113;45.624;11.700;2022-07-10T03:39:34;4.30;;;2.90;;
63012;SDS011;62113;45.624;11.700;2022-07-10T03:42:00;3.97;;;2.93;;
63012;SDS011;62113;45.624;11.700;2022-07-10T03:44:26;8.15;;;3.45;;
63012;SDS011;62113;45.624;11.700;2022-07-10T03:46:51;5.63;;;3.30;;
63012;SDS011;62113;45.624;11.700;2022-07-10T03:49:17;5.80;;;3.50;;
63012;SDS011;62113;45.624;11.700;2022-07-10T03:51:43;5.90;;;3.30;;
63012;SDS011;62113;45.624;11.700;2022-07-10T03:54:08;3.17;;;2.87;;
63012;SDS011;62113;45.624;11.700;2022-07-10T03:56:34;6.80;;;3.63;;
63012;SDS011;62113;45.624;11.700;2022-07-10T03:59:18;4.13;;;3.30;;
63012;SDS011;62113;45.624;11.700;2022-07-10T04:01:43;4.87;;;2.97;;
63012;SDS011;62113;45.624;11.700;2022-07-10T04:04:09;4.03;;;3.30;;
63012;SDS011;62113;45.624;11.700;2022-07-10T04:06:35;5.23;;;3.33;;
63012;SDS011;62113;45.624;11.700;2022-07-10T04:09:03;3.92;;;3.42;;
63012;SDS011;62113;45.624;11.700;2022-07-10T04:11:32;5.45;;;3.50;;
63012;SDS011;62113;45.624;11.700;2022-07-10T04:13:58;9.13;;;3.30;;
63012;SDS011;62113;45.624;11.700;2022-07-10T04:16:23;9.53;;;3.27;;
63012;SDS011;62113;45.624;11.700;2022-07-10T04:18:49;4.30;;;3.40;;
63012;SDS011;62113;45.624;11.700;2022-07-10T04:21:15;7.47;;;3.50;;
63012;SDS011;62113;45.624;11.700;2022-07-10T04:23:40;4.77;;;3.87;;
63012;SDS011;62113;45.624;11.700;2022-07-10T04:26:06;7.03;;;3.67;;
63012;SDS011;62113;45.624;11.700;2022-07-10T04:28:32;6.43;;;3.83;;
63012;SDS011;62113;45.624;11.700;2022-07-10T04:30:57;4.57;;;3.50;;
63012;SDS011;62113;45.624;11.700;2022-07-10T04:33:23;4.67;;;3.47;;
63012;SDS011;62113;45.624;11.700;2022-07-10T04:35:49;7.22;;;3.70;;
63012;SDS011;62113;45.624;11.700;2022-07-10T04:38:15;8.40;;;3.47;;
63012;SDS011;62113;45.624;11.700;2022-07-10T04:40:41;9.77;;;4.17;;
63012;SDS011;62113;45.624;11.700;2022-07-10T04:43:06;8.83;;;3.97;;
63012;SDS011;62113;45.624;11.700;2022-07-10T04:45:32;7.60;;;3.57;;
63012;SDS011;62113;45.624;11.700;2022-07-10T04:47:57;5.47;;;3.80;;
63012;SDS011;62113;45.624;11.700;2022-07-10T04:50:23;3.78;;;3.45;;
63012;SDS011;62113;45.624;11.700;2022-07-10T04:52:49;5.43;;;3.33;;
63012;SDS011;62113;45.624;11.700;2022-07-10T04:55:15;7.65;;;3.75;;
63012;SDS011;62113;45.624;11.700;2022-07-10T04:57:41;8.70;;;3.80;;
63012;SDS011;62113;45.624;11.700;2022-07-10T05:00:09;6.13;;;3.58;;
63012;SDS011;62113;45.624;11.700;2022-07-10T05:05:01;4.82;;;3.40;;
63012;SDS011;62113;45.624;11.700;2022-07-10T05:07:27;5.53;;;3.97;;
63012;SDS011;62113;45.624;11.700;2022-07-10T05:09:53;4.33;;;3.10;;
63012;SDS011;62113;45.624;11.700;2022-07-10T05:12:18;6.03;;;3.20;;
63012;SDS011;62113;45.624;11.700;2022-07-10T05:14:44;5.07;;;2.90;;
63012;SDS011;62113;45.624;11.700;2022-07-10T05:17:09;3.30;;;3.00;;
63012;SDS011;62113;45.624;11.700;2022-07-10T05:19:35;9.20;;;3.53;;
63012;SDS011;62113;45.624;11.700;2022-07-10T05:22:01;7.90;;;3.30;;
63012;SDS011;62113;45.624;11.700;2022-07-10T05:24:26;5.13;;;3.50;;
63012;SDS011;62113;45.624;11.700;2022-07-10T05:26:52;5.53;;;3.27;;
63012;SDS011;62113;45.624;11.700;2022-07-10T05:29:17;5.93;;;3.83;;
63012;SDS011;62113;45.624;11.700;2022-07-10T05:31:43;4.10;;;3.60;;
63012;SDS011;62113;45.624;11.700;2022-07-10T05:34:09;5.88;;;3.60;;
63012;SDS011;62113;45.624;11.700;2022-07-10T05:36:35;6.18;;;3.30;;
63012;SDS011;62113;45.624;11.700;2022-07-10T05:39:00;4.70;;;2.97;;
63012;SDS011;62113;45.624;11.700;2022-07-10T05:41:26;3.30;;;2.40;;
63012;SDS011;62113;45.624;11.700;2022-07-10T05:46:18;9.20;;;2.80;;
63012;SDS011;62113;45.624;11.700;2022-07-10T05:48:44;6.50;;;3.60;;
63012;SDS011;62113;45.624;11.700;2022-07-10T05:51:10;2.78;;;2.15;;
63012;SDS011;62113;45.624;11.700;2022-07-10T05:53:36;8.48;;;2.65;;
63012;SDS011;62113;45.624;11.700;2022-07-10T05:56:02;5.83;;;2.60;;
63012;SDS011;62113;45.624;11.700;2022-07-10T05:58:28;4.22;;;2.80;;
63012;SDS011;62113;45.624;11.700;2022-07-10T06:00:54;3.72;;;2.38;;
63012;SDS011;62113;45.624;11.700;2022-07-10T06:03:20;5.40;;;2.58;;
63012;SDS011;62113;45.624;11.700;2022-07-10T06:05:46;2.92;;;1.85;;
63012;SDS011;62113;45.624;11.700;2022-07-10T06:08:12;3.67;;;2.33;;
63012;SDS011;62113;45.624;11.700;2022-07-10T06:10:38;5.70;;;3.40;;
63012;SDS011;62113;45.624;11.700;2022-07-10T06:13:05;6.72;;;3.22;;
63012;SDS011;62113;45.624;11.700;2022-07-10T06:15:31;6.03;;;2.92;;
63012;SDS011;62113;45.624;11.700;2022-07-10T06:17:57;3.90;;;2.40;;
63012;SDS011;62113;45.624;11.700;2022-07-10T06:20:23;8.80;;;3.00;;
63012;SDS011;62113;45.624;11.700;2022-07-10T06:22:50;5.82;;;2.33;;
63012;SDS011;62113;45.624;11.700;2022-07-10T06:25:15;4.27;;;2.40;;
63012;SDS011;62113;45.624;11.700;2022-07-10T06:27:41;6.33;;;2.40;;
63012;SDS011;62113;45.624;11.700;2022-07-10T06:30:06;5.37;;;2.17;;
63012;SDS011;62113;45.624;11.700;2022-07-10T06:32:32;9.45;;;2.35;;
63012;SDS011;62113;45.624;11.700;2022-07-10T06:34:58;3.22;;;1.83;;
63012;SDS011;62113;45.624;11.700;2022-07-10T06:37:24;8.57;;;2.00;;
63012;SDS011;62113;45.624;11.700;2022-07-10T06:39:50;8.02;;;2.30;;
63012;SDS011;62113;45.624;11.700;2022-07-10T06:42:16;3.43;;;1.97;;
63012;SDS011;62113;45.624;11.700;2022-07-10T06:49:53;1.73;;;1.60;;
63012;SDS011;62113;45.624;11.700;2022-07-10T06:52:19;3.20;;;1.60;;
63012;SDS011;62113;45.624;11.700;2022-07-10T06:54:46;1.70;;;1.60;;
63012;SDS011;62113;45.624;11.700;2022-07-10T06:57:12;3.33;;;1.70;;
63012;SDS011;62113;45.624;11.700;2022-07-10T06:59:37;5.10;;;1.60;;
63012;SDS011;62113;45.624;11.700;2022-07-10T07:02:04;3.00;;;1.48;;
63012;SDS011;62113;45.624;11.700;2022-07-10T07:04:30;3.35;;;1.40;;
63012;SDS011;62113;45.624;11.700;2022-07-10T07:06:56;4.55;;;1.60;;
63012;SDS011;62113;45.624;11.700;2022-07-10T07:09:22;2.25;;;1.55;;
63012;SDS011;62113;45.624;11.700;2022-07-10T07:11:47;6.15;;;1.75;;
63012;SDS011;62113;45.624;11.700;2022-07-10T07:14:13;3.47;;;2.05;;
63012;SDS011;62113;45.624;11.700;2022-07-10T07:16:39;1.38;;;1.27;;
63012;SDS011;62113;45.624;11.700;2022-07-10T07:19:09;1.67;;;1.58;;
63012;SDS011;62113;45.624;11.700;2022-07-10T07:21:36;7.13;;;2.10;;
63012;SDS011;62113;45.624;11.700;2022-07-10T07:24:21;2.00;;;1.48;;
63012;SDS011;62113;45.624;11.700;2022-07-10T07:26:47;1.90;;;1.50;;
63012;SDS011;62113;45.624;11.700;2022-07-10T07:29:16;6.63;;;1.60;;
63012;SDS011;62113;45.624;11.700;2022-07-10T07:31:42;2.30;;;1.55;;
63012;SDS011;62113;45.624;11.700;2022-07-10T07:34:08;1.65;;;1.30;;
63012;SDS011;62113;45.624;11.700;2022-07-10T07:36:35;2.88;;;1.60;;
63012;SDS011;62113;45.624;11.700;2022-07-10T07:39:01;2.47;;;1.50;;
63012;SDS011;62113;45.624;11.700;2022-07-10T07:41:27;3.55;;;1.45;;
63012;SDS011;62113;45.624;11.700;2022-07-10T07:43:52;3.88;;;1.55;;
63012;SDS011;62113;45.624;11.700;2022-07-10T07:46:18;2.40;;;1.42;;
63012;SDS011;62113;45.624;11.700;2022-07-10T07:48:45;2.80;;;1.90;;
63012;SDS011;62113;45.624;11.700;2022-07-10T07:51:10;1.90;;;1.75;;
63012;SDS011;62113;45.624;11.700;2022-07-10T07:53:36;5.05;;;1.63;;
63012;SDS011;62113;45.624;11.700;2022-07-10T07:56:02;3.25;;;1.45;;
63012;SDS011;62113;45.624;11.700;2022-07-10T07:58:27;2.30;;;1.75;;
63012;SDS011;62113;45.624;11.700;2022-07-10T08:00:53;3.95;;;1.80;;
63012;SDS011;62113;45.624;11.700;2022-07-10T08:03:19;5.18;;;1.60;;
63012;SDS011;62113;45.624;11.700;2022-07-10T08:05:44;5.38;;;1.35;;
63012;SDS011;62113;45.624;11.700;2022-07-10T08:08:10;2.60;;;1.50;;
63012;SDS011;62113;45.624;11.700;2022-07-10T08:10:36;3.38;;;1.77;;
63012;SDS011;62113;45.624;11.700;2022-07-10T08:13:03;5.05;;;1.70;;
63012;SDS011;62113;45.624;11.700;2022-07-10T08:15:29;7.57;;;1.40;;
63012;SDS011;62113;45.624;11.700;2022-07-10T08:17:56;1.40;;;1.30;;
63012;SDS011;62113;45.624;11.700;2022-07-10T08:20:23;5.55;;;1.60;;
63012;SDS011;62113;45.624;11.700;2022-07-10T08:22:50;2.03;;;1.30;;
63012;SDS011;62113;45.624;11.700;2022-07-10T08:25:18;2.88;;;1.48;;
63012;SDS011;62113;45.624;11.700;2022-07-10T08:27:44;6.50;;;1.60;;
63012;SDS011;62113;45.624;11.700;2022-07-10T08:30:10;4.95;;;1.58;;
63012;SDS011;62113;45.624;11.700;2022-07-10T08:32:36;1.77;;;1.48;;
63012;SDS011;62113;45.624;11.700;2022-07-10T08:35:03;3.47;;;1.42;;
63012;SDS011;62113;45.624;11.700;2022-07-10T08:37:29;1.50;;;1.40;;
63012;SDS011;62113;45.624;11.700;2022-07-10T08:39:55;7.22;;;1.40;;
63012;SDS011;62113;45.624;11.700;2022-07-10T08:42:21;2.15;;;1.55;;
63012;SDS011;62113;45.624;11.700;2022-07-10T08:44:47;5.47;;;1.33;;
63012;SDS011;62113;45.624;11.700;2022-07-10T08:47:13;3.33;;;1.58;;
63012;SDS011;62113;45.624;11.700;2022-07-10T08:49:46;2.55;;;2.00;;
63012;SDS011;62113;45.624;11.700;2022-07-10T08:52:13;4.38;;;1.73;;
63012;SDS011;62113;45.624;11.700;2022-07-10T08:54:49;3.80;;;1.70;;
63012;SDS011;62113;45.624;11.700;2022-07-10T08:57:15;3.97;;;1.50;;
63012;SDS011;62113;45.624;11.700;2022-07-10T08:59:43;4.97;;;1.67;;
63012;SDS011;62113;45.624;11.700;2022-07-10T09:02:09;1.63;;;1.48;;
63012;SDS011;62113;45.624;11.700;2022-07-10T09:07:00;4.00;;;1.50;;
63012;SDS011;62113;45.624;11.700;2022-07-10T09:11:55;4.43;;;1.27;;
63012;SDS011;62113;45.624;11.700;2022-07-10T09:14:22;5.05;;;1.50;;
63012;SDS011;62113;45.624;11.700;2022-07-10T09:16:50;3.85;;;1.40;;
63012;SDS011;62113;45.624;11.700;2022-07-10T09:24:08;5.40;;;1.10;;
63012;SDS011;62113;45.624;11.700;2022-07-10T09:29:09;3.25;;;1.23;;
63012;SDS011;62113;45.624;11.700;2022-07-10T09:31:52;1.20;;;1.10;;
63012;SDS011;62113;45.624;11.700;2022-07-10T09:34:38;1.63;;;1.00;;
63012;SDS011;62113;45.624;11.700;2022-07-10T09:37:42;1.42;;;1.25;;
63012;SDS011;62113;45.624;11.700;2022-07-10T09:40:08;3.40;;;1.40;;
63012;SDS011;62113;45.624;11.700;2022-07-10T09:42:35;1.83;;;0.98;;
63012;SDS011;62113;45.624;11.700;2022-07-10T09:47:40;0.80;;;0.80;;
63012;SDS011;62113;45.624;11.700;2022-07-10T09:52:52;5.70;;;1.08;;
63012;SDS011;62113;45.624;11.700;2022-07-10T09:55:20;2.90;;;1.08;;
63012;SDS011;62113;45.624;11.700;2022-07-10T09:57:48;1.02;;;1.00;;
63012;SDS011;62113;45.624;11.700;2022-07-10T10:00:19;3.03;;;2.28;;
63012;SDS011;62113;45.624;11.700;2022-07-10T10:03:00;1.30;;;1.20;;
63012;SDS011;62113;45.624;11.700;2022-07-10T10:05:32;2.22;;;1.25;;
63012;SDS011;62113;45.624;11.700;2022-07-10T10:08:27;1.35;;;1.20;;
63012;SDS011;62113;45.624;11.700;2022-07-10T10:10:52;4.32;;;1.00;;
63012;SDS011;62113;45.624;11.700;2022-07-10T10:13:20;1.75;;;1.35;;
63012;SDS011;62113;45.624;11.700;2022-07-10T10:15:47;4.53;;;3.58;;
63012;SDS011;62113;45.624;11.700;2022-07-10T10:18:15;12.38;;;1.50;;
63012;SDS011;62113;45.624;11.700;2022-07-10T10:20:44;1.75;;;1.00;;
63012;SDS011;62113;45.624;11.700;2022-07-10T10:23:12;1.15;;;1.05;;
63012;SDS011;62113;45.624;11.700;2022-07-10T10:25:43;1.20;;;1.10;;
63012;SDS011;62113;45.624;11.700;2022-07-10T10:28:09;3.55;;;1.77;;
63012;SDS011;62113;45.624;11.700;2022-07-10T10:30:37;3.83;;;1.80;;
63012;SDS011;62113;45.624;11.700;2022-07-10T10:33:38;2.03;;;1.58;;
63012;SDS011;62113;45.624;11.700;2022-07-10T10:36:12;3.85;;;2.80;;
63012;SDS011;62113;45.624;11.700;2022-07-10T10:41:30;1.23;;;0.70;;
63012;SDS011;62113;45.624;11.700;2022-07-10T10:49:15;1.98;;;1.05;;
63012;SDS011;62113;45.624;11.700;2022-07-10T10:51:57;3.25;;;1.10;;
63012;SDS011;62113;45.624;11.700;2022-07-10T10:54:58;1.33;;;0.75;;
63012;SDS011;62113;45.624;11.700;2022-07-10T10:59:56;5.25;;;2.83;;
63012;SDS011;62113;45.624;11.700;2022-07-10T11:02:27;16.58;;;10.52;;
63012;SDS011;62113;45.624;11.700;2022-07-10T11:13:01;5.22;;;1.98;;
63012;SDS011;62113;45.624;11.700;2022-07-10T11:15:27;3.83;;;2.38;;
63012;SDS011;62113;45.624;11.700;2022-07-10T11:17:55;3.13;;;1.90;;
63012;SDS011;62113;45.624;11.700;2022-07-10T11:20:22;5.10;;;2.97;;
63012;SDS011;62113;45.624;11.700;2022-07-10T11:25:46;2.17;;;1.40;;
63012;SDS011;62113;45.624;11.700;2022-07-10T11:28:28;1.65;;;1.20;;
63012;SDS011;62113;45.624;11.700;2022-07-10T11:31:16;1.27;;;1.00;;
63012;SDS011;62113;45.624;11.700;2022-07-10T11:33:46;0.90;;;0.90;;
63012;SDS011;62113;45.624;11.700;2022-07-10T11:36:17;1.48;;;1.30;;
63012;SDS011;62113;45.624;11.700;2022-07-10T11:38:45;6.60;;;3.70;;
63012;SDS011;62113;45.624;11.700;2022-07-10T11:41:20;1.33;;;1.23;;
63012;SDS011;62113;45.624;11.700;2022-07-10T11:43:55;1.58;;;1.00;;
63012;SDS011;62113;45.624;11.700;2022-07-10T11:46:23;2.20;;;1.20;;
63012;SDS011;62113;45.624;11.700;2022-07-10T11:48:51;0.95;;;0.90;;
63012;SDS011;62113;45.624;11.700;2022-07-10T11:51:28;3.53;;;1.00;;
63012;SDS011;62113;45.624;11.700;2022-07-10T11:56:47;2.38;;;1.20;;
63012;SDS011;62113;45.624;11.700;2022-07-10T11:59:16;1.00;;;1.00;;
63012;SDS011;62113;45.624;11.700;2022-07-10T12:01:45;1.73;;;1.10;;
63012;SDS011;62113;45.624;11.700;2022-07-10T12:04:13;3.13;;;1.10;;
63012;SDS011;62113;45.624;11.700;2022-07-10T12:06:41;1.35;;;1.17;;
63012;SDS011;62113;45.624;11.700;2022-07-10T12:09:09;1.00;;;1.00;;
63012;SDS011;62113;45.624;11.700;2022-07-10T12:11:37;1.85;;;1.15;;
63012;SDS011;62113;45.624;11.700;2022-07-10T12:16:39;2.20;;;1.20;;
63012;SDS011;62113;45.624;11.700;2022-07-10T12:19:10;1.20;;;1.10;;
63012;SDS011;62113;45.624;11.700;2022-07-10T12:21:44;1.35;;;1.00;;
63012;SDS011;62113;45.624;11.700;2022-07-10T12:24:20;1.20;;;1.10;;
63012;SDS011;62113;45.624;11.700;2022-07-10T12:26:46;5.20;;;1.00;;
63012;SDS011;62113;45.624;11.700;2022-07-10T12:31:48;1.95;;;1.00;;
63012;SDS011;62113;45.624;11.700;2022-07-10T12:34:14;1.00;;;0.90;;
63012;SDS011;62113;45.624;11.700;2022-07-10T12:36:42;1.70;;;1.58;;
63012;SDS011;62113;45.624;11.700;2022-07-10T12:39:09;1.10;;;1.05;;
63012;SDS011;62113;45.624;11.700;2022-07-10T12:41:52;1.10;;;1.10;;
63012;SDS011;62113;45.624;11.700;2022-07-10T12:47:06;2.58;;;1.00;;
63012;SDS011;62113;45.624;11.700;2022-07-10T13:03:08;1.23;;;1.02;;
63012;SDS011;62113;45.624;11.700;2022-07-10T13:05:36;3.50;;;1.15;;
63012;SDS011;62113;45.624;11.700;2022-07-10T13:08:14;1.20;;;1.10;;
63012;SDS011;62113;45.624;11.700;2022-07-10T13:10:51;7.80;;;1.10;;
63012;SDS011;62113;45.624;11.700;2022-07-10T13:13:18;0.82;;;0.82;;
63012;SDS011;62113;45.624;11.700;2022-07-10T13:18:22;1.27;;;1.00;;
63012;SDS011;62113;45.624;11.700;2022-07-10T13:20:50;4.60;;;1.15;;
63012;SDS011;62113;45.624;11.700;2022-07-10T13:23:17;1.65;;;1.08;;
63012;SDS011;62113;45.624;11.700;2022-07-10T13:25:57;1.17;;;1.08;;
63012;SDS011;62113;45.624;11.700;2022-07-10T13:28:26;3.00;;;1.08;;
63012;SDS011;62113;45.624;11.700;2022-07-10T13:30:52;1.33;;;1.13;;
63012;SDS011;62113;45.624;11.700;2022-07-10T13:33:17;1.30;;;1.20;;
63012;SDS011;62113;45.624;11.700;2022-07-10T13:35:43;2.38;;;1.27;;
63012;SDS011;62113;45.624;11.700;2022-07-10T13:38:10;0.98;;;0.90;;
63012;SDS011;62113;45.624;11.700;2022-07-10T13:43:02;1.77;;;1.20;;
63012;SDS011;62113;45.624;11.700;2022-07-10T13:45:29;1.38;;;1.05;;
63012;SDS011;62113;45.624;11.700;2022-07-10T13:47:58;1.80;;;1.20;;
63012;SDS011;62113;45.624;11.700;2022-07-10T13:52:50;4.35;;;1.17;;
63012;SDS011;62113;45.624;11.700;2022-07-10T13:55:16;1.10;;;1.10;;
63012;SDS011;62113;45.624;11.700;2022-07-10T14:00:09;1.80;;;1.27;;
63012;SDS011;62113;45.624;11.700;2022-07-10T14:02:36;1.08;;;0.98;;
63012;SDS011;62113;45.624;11.700;2022-07-10T14:05:02;4.32;;;1.27;;
63012;SDS011;62113;45.624;11.700;2022-07-10T14:07:27;1.13;;;1.10;;
63012;SDS011;62113;45.624;11.700;2022-07-10T14:09:54;2.75;;;0.93;;
63012;SDS011;62113;45.624;11.700;2022-07-10T14:12:20;1.58;;;0.90;;
63012;SDS011;62113;45.624;11.700;2022-07-10T14:17:12;3.33;;;1.30;;
63012;SDS011;62113;45.624;11.700;2022-07-10T14:22:05;4.10;;;1.35;;
63012;SDS011;62113;45.624;11.700;2022-07-10T14:26:57;2.10;;;1.50;;
63012;SDS011;62113;45.624;11.700;2022-07-10T14:29:22;1.75;;;1.30;;
63012;SDS011;62113;45.624;11.700;2022-07-10T14:31:48;2.03;;;1.40;;
63012;SDS011;62113;45.624;11.700;2022-07-10T14:34:17;4.28;;;1.00;;
63012;SDS011;62113;45.624;11.700;2022-07-10T14:36:43;1.30;;;1.10;;
63012;SDS011;62113;45.624;11.700;2022-07-10T14:43:59;3.40;;;1.55;;
63012;SDS011;62113;45.624;11.700;2022-07-10T14:46:25;4.20;;;1.30;;
63012;SDS011;62113;45.624;11.700;2022-07-10T14:48:51;2.17;;;1.10;;
63012;SDS011;62113;45.624;11.700;2022-07-10T14:51:17;4.50;;;1.30;;
63012;SDS011;62113;45.624;11.700;2022-07-10T14:53:42;1.65;;;1.30;;
63012;SDS011;62113;45.624;11.700;2022-07-10T14:56:10;2.80;;;1.30;;
63012;SDS011;62113;45.624;11.700;2022-07-10T14:58:36;3.67;;;1.63;;
63012;SDS011;62113;45.624;11.700;2022-07-10T15:03:28;2.10;;;1.30;;
63012;SDS011;62113;45.624;11.700;2022-07-10T15:05:54;2.55;;;1.17;;
63012;SDS011;62113;45.624;11.700;2022-07-10T15:08:25;2.28;;;1.42;;
63012;SDS011;62113;45.624;11.700;2022-07-10T15:10:51;2.05;;;1.10;;
63012;SDS011;62113;45.624;11.700;2022-07-10T15:18:08;1.33;;;1.23;;
63012;SDS011;62113;45.624;11.700;2022-07-10T15:20:34;1.13;;;1.08;;
63012;SDS011;62113;45.624;11.700;2022-07-10T15:23:00;1.80;;;1.27;;
63012;SDS011;62113;45.624;11.700;2022-07-10T15:27:52;1.60;;;1.00;;
63012;SDS011;62113;45.624;11.700;2022-07-10T15:30:18;3.08;;;1.20;;
63012;SDS011;62113;45.624;11.700;2022-07-10T15:35:11;5.97;;;1.35;;
63012;SDS011;62113;45.624;11.700;2022-07-10T15:37:37;1.83;;;1.10;;
63012;SDS011;62113;45.624;11.700;2022-07-10T15:40:03;2.17;;;1.20;;
63012;SDS011;62113;45.624;11.700;2022-07-10T15:42:29;3.50;;;1.38;;
63012;SDS011;62113;45.624;11.700;2022-07-10T15:47:21;6.25;;;1.48;;
63012;SDS011;62113;45.624;11.700;2022-07-10T15:49:46;3.95;;;1.30;;
63012;SDS011;62113;45.624;11.700;2022-07-10T15:52:12;1.38;;;1.13;;
63012;SDS011;62113;45.624;11.700;2022-07-10T15:54:38;3.20;;;1.20;;
63012;SDS011;62113;45.624;11.700;2022-07-10T15:57:03;5.88;;;1.50;;
63012;SDS011;62113;45.624;11.700;2022-07-10T15:59:29;3.40;;;1.33;;
63012;SDS011;62113;45.624;11.700;2022-07-10T16:01:56;2.95;;;1.33;;
63012;SDS011;62113;45.624;11.700;2022-07-10T16:04:22;4.15;;;1.35;;
63012;SDS011;62113;45.624;11.700;2022-07-10T16:06:49;6.97;;;1.30;;
63012;SDS011;62113;45.624;11.700;2022-07-10T16:09:15;1.75;;;1.15;;
63012;SDS011;62113;45.624;11.700;2022-07-10T16:11:41;2.50;;;1.27;;
63012;SDS011;62113;45.624;11.700;2022-07-10T16:14:07;7.57;;;1.42;;
63012;SDS011;62113;45.624;11.700;2022-07-10T16:16:34;3.92;;;1.25;;
63012;SDS011;62113;45.624;11.700;2022-07-10T16:19:01;2.22;;;1.35;;
63012;SDS011;62113;45.624;11.700;2022-07-10T16:21:27;2.08;;;1.20;;
63012;SDS011;62113;45.624;11.700;2022-07-10T16:23:53;3.40;;;1.05;;
63012;SDS011;62113;45.624;11.700;2022-07-10T16:26:18;2.92;;;1.23;;
63012;SDS011;62113;45.624;11.700;2022-07-10T16:28:44;3.45;;;1.45;;
63012;SDS011;62113;45.624;11.700;2022-07-10T16:33:36;5.75;;;2.00;;
63012;SDS011;62113;45.624;11.700;2022-07-10T16:36:04;2.33;;;1.42;;
63012;SDS011;62113;45.624;11.700;2022-07-10T16:38:30;6.80;;;2.10;;
63012;SDS011;62113;45.624;11.700;2022-07-10T16:40:55;2.63;;;1.20;;